sensor_id;sensor_type;location;lat;lon;timestamp;temperature;humidity
9177;DHT22;4623;54.310;10.112;2022-08-19T00:00:10;20.70;99.90
9177;DHT22;4623;54.310;10.112;2022-08-19T00:02:36;20.50;99.90
9177;DHT22;4623;54.310;10.112;2022-08-19T00:05:03;20.50;99.90
9177;DHT22;4623;54.310;10.112;2022-08-19T00:07:29;20.60;99.90
9177;DHT22;4623;54.310;10.112;2022-08-19T00:09:54;20.50;99.90
9177;DHT22;4623;54.310;10.112;2022-08-19T00:12:20;20.50;99.90
9177;DHT22;4623;54.310;10.112;2022-08-19T00:14:46;20.50;99.90
9177;DHT22;4623;54.310;10.112;2022-08-19T00:17:11;20.60;99.90
9177;DHT22;4623;54.310;10.112;2022-08-19T00:19:38;20.60;99.90
9177;DHT22;4623;54.310;10.112;2022-08-19T00:22:04;20.70;99.90
9177;DHT22;4623;54.310;10.112;2022-08-19T00:24:31;20.70;99.90
9177;DHT22;4623;54.310;10.112;2022-08-19T00:26:56;20.70;99.90
9177;DHT22;4623;54.310;10.112;2022-08-19T00:29:24;20.60;99.90
9177;DHT22;4623;54.310;10.112;2022-08-19T00:31:51;20.60;99.90
9177;DHT22;4623;54.310;10.112;2022-08-19T00:34:20;20.60;99.90
9177;DHT22;4623;54.310;10.112;2022-08-19T00:36:46;20.60;99.90
9177;DHT22;4623;54.310;10.112;2022-08-19T00:39:13;20.60;99.90
9177;DHT22;4623;54.310;10.112;2022-08-19T00:41:40;20.70;99.90
9177;DHT22;4623;54.310;10.112;2022-08-19T00:44:07;20.80;99.90
9177;DHT22;4623;54.310;10.112;2022-08-19T00:46:35;20.80;99.90
9177;DHT22;4623;54.310;10.112;2022-08-19T00:49:06;20.90;99.90
9177;DHT22;4623;54.310;10.112;2022-08-19T00:51:33;20.90;99.90
9177;DHT22;4623;54.310;10.112;2022-08-19T00:54:00;20.90;99.90
9177;DHT22;4623;54.310;10.112;2022-08-19T00:56:27;20.80;99.90
9177;DHT22;4623;54.310;10.112;2022-08-19T00:58:55;20.70;99.90
9177;DHT22;4623;54.310;10.112;2022-08-19T01:01:21;20.80;99.90
9177;DHT22;4623;54.310;10.112;2022-08-19T01:03:47;20.90;99.90
9177;DHT22;4623;54.310;10.112;2022-08-19T01:06:13;20.80;99.90
9177;DHT22;4623;54.310;10.112;2022-08-19T01:08:39;20.80;99.90
9177;DHT22;4623;54.310;10.112;2022-08-19T01:11:07;20.80;99.90
9177;DHT22;4623;54.310;10.112;2022-08-19T01:13:34;20.90;99.90
9177;DHT22;4623;54.310;10.112;2022-08-19T01:16:05;20.90;99.90
9177;DHT22;4623;54.310;10.112;2022-08-19T01:18:32;21.00;99.90
9177;DHT22;4623;54.310;10.112;2022-08-19T01:21:08;20.90;99.90
9177;DHT22;4623;54.310;10.112;2022-08-19T01:23:34;20.90;99.90
9177;DHT22;4623;54.310;10.112;2022-08-19T01:26:12;20.90;99.90
9177;DHT22;4623;54.310;10.112;2022-08-19T01:28:39;20.90;99.90
9177;DHT22;4623;54.310;10.112;2022-08-19T01:31:06;21.00;99.90
9177;DHT22;4623;54.310;10.112;2022-08-19T01:33:31;21.00;99.90
9177;DHT22;4623;54.310;10.112;2022-08-19T01:36:28;21.00;99.90
9177;DHT22;4623;54.310;10.112;2022-08-19T01:38:55;21.00;99.90
9177;DHT22;4623;54.310;10.112;2022-08-19T01:41:21;21.00;99.90
9177;DHT22;4623;54.310;10.112;2022-08-19T01:43:49;21.00;99.90
9177;DHT22;4623;54.310;10.112;2022-08-19T01:46:15;21.00;99.90
9177;DHT22;4623;54.310;10.112;2022-08-19T01:48:42;20.90;99.90
9177;DHT22;4623;54.310;10.112;2022-08-19T01:51:10;20.80;99.90
9177;DHT22;4623;54.310;10.112;2022-08-19T01:53:37;20.70;99.90
9177;DHT22;4623;54.310;10.112;2022-08-19T01:56:03;20.80;99.90
9177;DHT22;4623;54.310;10.112;2022-08-19T01:58:33;20.80;99.90
9177;DHT22;4623;54.310;10.112;2022-08-19T02:01:02;20.80;99.90
9177;DHT22;4623;54.310;10.112;2022-08-19T02:03:28;20.80;99.90
9177;DHT22;4623;54.310;10.112;2022-08-19T02:06:00;20.80;99.90
9177;DHT22;4623;54.310;10.112;2022-08-19T02:08:29;20.70;99.90
9177;DHT22;4623;54.310;10.112;2022-08-19T02:10:55;20.70;99.90
9177;DHT22;4623;54.310;10.112;2022-08-19T02:13:22;20.70;99.90
9177;DHT22;4623;54.310;10.112;2022-08-19T02:15:48;20.70;99.90
9177;DHT22;4623;54.310;10.112;2022-08-19T02:18:13;20.80;99.90
9177;DHT22;4623;54.310;10.112;2022-08-19T02:20:40;20.80;99.90
9177;DHT22;4623;54.310;10.112;2022-08-19T02:23:07;20.80;99.90
9177;DHT22;4623;54.310;10.112;2022-08-19T02:25:32;20.80;99.90
9177;DHT22;4623;54.310;10.112;2022-08-19T02:27:58;20.80;99.90
9177;DHT22;4623;54.310;10.112;2022-08-19T02:30:24;20.80;99.90
9177;DHT22;4623;54.310;10.112;2022-08-19T02:32:50;20.80;99.90
9177;DHT22;4623;54.310;10.112;2022-08-19T02:35:16;20.80;99.90
9177;DHT22;4623;54.310;10.112;2022-08-19T02:37:42;20.90;99.90
9177;DHT22;4623;54.310;10.112;2022-08-19T02:40:28;20.90;99.90
9177;DHT22;4623;54.310;10.112;2022-08-19T02:42:54;20.80;99.90
9177;DHT22;4623;54.310;10.112;2022-08-19T02:45:20;20.80;99.90
9177;DHT22;4623;54.310;10.112;2022-08-19T02:47:45;20.80;99.90
9177;DHT22;4623;54.310;10.112;2022-08-19T02:50:11;20.80;99.90
9177;DHT22;4623;54.310;10.112;2022-08-19T02:52:38;20.80;99.90
9177;DHT22;4623;54.310;10.112;2022-08-19T02:55:04;20.80;99.90
9177;DHT22;4623;54.310;10.112;2022-08-19T02:57:31;20.80;99.90
9177;DHT22;4623;54.310;10.112;2022-08-19T02:59:57;20.70;99.90
9177;DHT22;4623;54.310;10.112;2022-08-19T03:02:22;20.70;99.90
9177;DHT22;4623;54.310;10.112;2022-08-19T03:04:48;20.60;99.90
9177;DHT22;4623;54.310;10.112;2022-08-19T03:07:15;20.60;99.90
9177;DHT22;4623;54.310;10.112;2022-08-19T03:09:41;20.60;99.90
9177;DHT22;4623;54.310;10.112;2022-08-19T03:12:08;20.60;99.90
9177;DHT22;4623;54.310;10.112;2022-08-19T03:14:33;20.50;99.90
9177;DHT22;4623;54.310;10.112;2022-08-19T03:16:59;20.50;99.90
9177;DHT22;4623;54.310;10.112;2022-08-19T03:19:25;20.40;99.90
9177;DHT22;4623;54.310;10.112;2022-08-19T03:21:52;20.40;99.90
9177;DHT22;4623;54.310;10.112;2022-08-19T03:24:18;20.40;99.90
9177;DHT22;4623;54.310;10.112;2022-08-19T03:26:50;20.40;99.90
9177;DHT22;4623;54.310;10.112;2022-08-19T03:29:18;20.50;99.90
9177;DHT22;4623;54.310;10.112;2022-08-19T03:31:45;20.50;99.90
9177;DHT22;4623;54.310;10.112;2022-08-19T03:34:13;20.50;99.90
9177;DHT22;4623;54.310;10.112;2022-08-19T03:36:39;20.60;99.90
9177;DHT22;4623;54.310;10.112;2022-08-19T03:39:05;20.60;99.90
9177;DHT22;4623;54.310;10.112;2022-08-19T03:41:37;20.60;99.90
9177;DHT22;4623;54.310;10.112;2022-08-19T03:44:04;20.60;99.90
9177;DHT22;4623;54.310;10.112;2022-08-19T03:46:34;20.60;99.90
9177;DHT22;4623;54.310;10.112;2022-08-19T03:49:01;20.60;99.90
9177;DHT22;4623;54.310;10.112;2022-08-19T03:51:32;20.50;99.90
9177;DHT22;4623;54.310;10.112;2022-08-19T03:54:00;20.50;99.90
9177;DHT22;4623;54.310;10.112;2022-08-19T03:56:27;20.50;99.90
9177;DHT22;4623;54.310;10.112;2022-08-19T03:58:56;20.60;99.90
9177;DHT22;4623;54.310;10.112;2022-08-19T04:01:24;20.60;99.90
9177;DHT22;4623;54.310;10.112;2022-08-19T04:03:52;20.60;99.90
9177;DHT22;4623;54.310;10.112;2022-08-19T04:06:29;20.60;99.90
9177;DHT22;4623;54.310;10.112;2022-08-19T04:08:59;20.50;99.90
9177;DHT22;4623;54.310;10.112;2022-08-19T04:11:29;20.50;99.90
9177;DHT22;4623;54.310;10.112;2022-08-19T04:13:55;20.50;99.90
9177;DHT22;4623;54.310;10.112;2022-08-19T04:16:24;20.60;99.90
9177;DHT22;4623;54.310;10.112;2022-08-19T04:18:50;20.70;99.90
9177;DHT22;4623;54.310;10.112;2022-08-19T04:21:21;20.70;99.90
9177;DHT22;4623;54.310;10.112;2022-08-19T04:23:47;20.80;99.90
9177;DHT22;4623;54.310;10.112;2022-08-19T04:26:15;20.80;99.90
9177;DHT22;4623;54.310;10.112;2022-08-19T04:28:42;20.70;99.90
9177;DHT22;4623;54.310;10.112;2022-08-19T04:31:16;20.70;99.90
9177;DHT22;4623;54.310;10.112;2022-08-19T04:33:42;20.70;99.90
9177;DHT22;4623;54.310;10.112;2022-08-19T04:36:15;20.70;99.90
9177;DHT22;4623;54.310;10.112;2022-08-19T04:38:41;20.70;99.90
9177;DHT22;4623;54.310;10.112;2022-08-19T04:41:07;20.70;99.90
9177;DHT22;4623;54.310;10.112;2022-08-19T04:43:51;20.70;99.90
9177;DHT22;4623;54.310;10.112;2022-08-19T04:46:16;20.70;99.90
9177;DHT22;4623;54.310;10.112;2022-08-19T04:48:42;20.80;99.90
9177;DHT22;4623;54.310;10.112;2022-08-19T04:51:11;20.80;99.90
9177;DHT22;4623;54.310;10.112;2022-08-19T04:53:40;20.70;99.90
9177;DHT22;4623;54.310;10.112;2022-08-19T04:56:09;20.70;99.90
9177;DHT22;4623;54.310;10.112;2022-08-19T04:58:37;20.80;99.90
9177;DHT22;4623;54.310;10.112;2022-08-19T05:01:03;20.70;99.90
9177;DHT22;4623;54.310;10.112;2022-08-19T05:03:29;20.70;99.90
9177;DHT22;4623;54.310;10.112;2022-08-19T05:06:06;20.70;99.90
9177;DHT22;4623;54.310;10.112;2022-08-19T05:08:33;20.70;99.90
9177;DHT22;4623;54.310;10.112;2022-08-19T05:10:59;20.70;99.90
9177;DHT22;4623;54.310;10.112;2022-08-19T05:13:25;20.90;99.90
9177;DHT22;4623;54.310;10.112;2022-08-19T05:15:59;21.00;99.90
9177;DHT22;4623;54.310;10.112;2022-08-19T05:18:25;21.00;99.90
9177;DHT22;4623;54.310;10.112;2022-08-19T05:21:14;21.20;99.90
9177;DHT22;4623;54.310;10.112;2022-08-19T05:23:59;21.30;99.90
9177;DHT22;4623;54.310;10.112;2022-08-19T05:26:25;21.30;99.90
9177;DHT22;4623;54.310;10.112;2022-08-19T05:28:55;21.30;99.90
9177;DHT22;4623;54.310;10.112;2022-08-19T05:31:21;21.40;99.90
9177;DHT22;4623;54.310;10.112;2022-08-19T05:33:47;21.40;99.90
9177;DHT22;4623;54.310;10.112;2022-08-19T05:36:13;21.30;99.90
9177;DHT22;4623;54.310;10.112;2022-08-19T05:38:39;21.30;99.90
9177;DHT22;4623;54.310;10.112;2022-08-19T05:41:14;21.30;99.90
9177;DHT22;4623;54.310;10.112;2022-08-19T05:43:42;21.40;99.90
9177;DHT22;4623;54.310;10.112;2022-08-19T05:46:08;21.40;99.90
9177;DHT22;4623;54.310;10.112;2022-08-19T05:48:41;21.40;99.90
9177;DHT22;4623;54.310;10.112;2022-08-19T05:51:07;21.40;99.90
9177;DHT22;4623;54.310;10.112;2022-08-19T05:53:34;21.40;99.90
9177;DHT22;4623;54.310;10.112;2022-08-19T05:56:07;21.50;99.90
9177;DHT22;4623;54.310;10.112;2022-08-19T05:58:34;21.50;99.90
9177;DHT22;4623;54.310;10.112;2022-08-19T06:01:00;21.40;99.90
9177;DHT22;4623;54.310;10.112;2022-08-19T06:03:30;21.40;99.90
9177;DHT22;4623;54.310;10.112;2022-08-19T06:05:57;21.30;99.90
9177;DHT22;4623;54.310;10.112;2022-08-19T06:08:24;21.40;99.90
9177;DHT22;4623;54.310;10.112;2022-08-19T06:10:50;21.50;99.90
9177;DHT22;4623;54.310;10.112;2022-08-19T06:13:16;21.50;99.90
9177;DHT22;4623;54.310;10.112;2022-08-19T06:15:42;21.60;99.90
9177;DHT22;4623;54.310;10.112;2022-08-19T06:18:09;21.50;99.90
9177;DHT22;4623;54.310;10.112;2022-08-19T06:20:35;21.40;99.90
9177;DHT22;4623;54.310;10.112;2022-08-19T06:23:00;21.40;99.90
9177;DHT22;4623;54.310;10.112;2022-08-19T06:25:26;21.30;99.90
9177;DHT22;4623;54.310;10.112;2022-08-19T06:27:52;21.40;99.90
9177;DHT22;4623;54.310;10.112;2022-08-19T06:30:18;21.40;99.90
9177;DHT22;4623;54.310;10.112;2022-08-19T06:32:44;21.50;99.90
9177;DHT22;4623;54.310;10.112;2022-08-19T06:35:10;21.50;99.90
9177;DHT22;4623;54.310;10.112;2022-08-19T06:37:37;21.50;99.90
9177;DHT22;4623;54.310;10.112;2022-08-19T06:40:02;21.50;99.90
9177;DHT22;4623;54.310;10.112;2022-08-19T06:42:28;21.50;99.90
9177;DHT22;4623;54.310;10.112;2022-08-19T06:44:54;21.50;99.90
9177;DHT22;4623;54.310;10.112;2022-08-19T06:47:21;21.50;99.90
9177;DHT22;4623;54.310;10.112;2022-08-19T06:49:46;21.60;99.90
9177;DHT22;4623;54.310;10.112;2022-08-19T06:52:13;21.60;99.90
9177;DHT22;4623;54.310;10.112;2022-08-19T06:54:41;21.60;99.90
9177;DHT22;4623;54.310;10.112;2022-08-19T06:57:08;21.70;99.90
9177;DHT22;4623;54.310;10.112;2022-08-19T06:59:38;21.90;99.90
9177;DHT22;4623;54.310;10.112;2022-08-19T07:02:05;22.00;99.90
9177;DHT22;4623;54.310;10.112;2022-08-19T07:04:33;21.90;99.90
9177;DHT22;4623;54.310;10.112;2022-08-19T07:07:03;21.80;99.90
9177;DHT22;4623;54.310;10.112;2022-08-19T07:09:31;21.70;99.90
9177;DHT22;4623;54.310;10.112;2022-08-19T07:11:57;21.60;99.90
9177;DHT22;4623;54.310;10.112;2022-08-19T07:14:26;21.50;99.90
9177;DHT22;4623;54.310;10.112;2022-08-19T07:16:54;21.50;99.90
9177;DHT22;4623;54.310;10.112;2022-08-19T07:19:22;21.50;99.90
9177;DHT22;4623;54.310;10.112;2022-08-19T07:21:49;21.60;99.90
9177;DHT22;4623;54.310;10.112;2022-08-19T07:24:19;21.60;99.90
9177;DHT22;4623;54.310;10.112;2022-08-19T07:26:45;21.60;99.90
9177;DHT22;4623;54.310;10.112;2022-08-19T07:29:11;21.50;99.90
9177;DHT22;4623;54.310;10.112;2022-08-19T07:31:38;21.50;99.90
9177;DHT22;4623;54.310;10.112;2022-08-19T07:34:06;21.50;99.90
9177;DHT22;4623;54.310;10.112;2022-08-19T07:36:32;21.40;99.90
9177;DHT22;4623;54.310;10.112;2022-08-19T07:39:00;21.40;99.90
9177;DHT22;4623;54.310;10.112;2022-08-19T07:41:27;21.40;99.90
9177;DHT22;4623;54.310;10.112;2022-08-19T07:44:01;21.30;99.90
9177;DHT22;4623;54.310;10.112;2022-08-19T07:46:34;21.30;99.90
9177;DHT22;4623;54.310;10.112;2022-08-19T07:49:01;21.30;99.90
9177;DHT22;4623;54.310;10.112;2022-08-19T07:51:28;21.30;99.90
9177;DHT22;4623;54.310;10.112;2022-08-19T07:53:54;21.30;99.90
9177;DHT22;4623;54.310;10.112;2022-08-19T07:56:20;21.30;99.90
9177;DHT22;4623;54.310;10.112;2022-08-19T07:58:47;21.20;99.90
9177;DHT22;4623;54.310;10.112;2022-08-19T08:01:17;21.10;99.90
9177;DHT22;4623;54.310;10.112;2022-08-19T08:03:43;21.10;99.90
9177;DHT22;4623;54.310;10.112;2022-08-19T08:06:27;21.30;99.90
9177;DHT22;4623;54.310;10.112;2022-08-19T08:09:12;21.30;99.90
9177;DHT22;4623;54.310;10.112;2022-08-19T08:11:41;21.40;99.90
9177;DHT22;4623;54.310;10.112;2022-08-19T08:14:08;21.30;99.90
9177;DHT22;4623;54.310;10.112;2022-08-19T08:16:38;21.30;99.90
9177;DHT22;4623;54.310;10.112;2022-08-19T08:19:07;21.20;99.90
9177;DHT22;4623;54.310;10.112;2022-08-19T08:21:33;21.30;99.90
9177;DHT22;4623;54.310;10.112;2022-08-19T08:23:59;21.30;99.90
9177;DHT22;4623;54.310;10.112;2022-08-19T08:26:25;21.20;99.90
9177;DHT22;4623;54.310;10.112;2022-08-19T08:28:52;21.20;99.90
9177;DHT22;4623;54.310;10.112;2022-08-19T08:31:17;21.10;99.90
9177;DHT22;4623;54.310;10.112;2022-08-19T08:33:47;21.00;99.90
9177;DHT22;4623;54.310;10.112;2022-08-19T08:36:13;21.00;99.90
9177;DHT22;4623;54.310;10.112;2022-08-19T08:38:43;21.00;99.90
9177;DHT22;4623;54.310;10.112;2022-08-19T08:43:54;21.00;99.90
9177;DHT22;4623;54.310;10.112;2022-08-19T08:46:47;20.90;99.90
9177;DHT22;4623;54.310;10.112;2022-08-19T08:52:15;21.10;99.90
9177;DHT22;4623;54.310;10.112;2022-08-19T08:54:43;21.20;99.90
9177;DHT22;4623;54.310;10.112;2022-08-19T09:00:17;21.40;99.90
9177;DHT22;4623;54.310;10.112;2022-08-19T09:02:44;21.50;99.90
9177;DHT22;4623;54.310;10.112;2022-08-19T09:05:10;21.60;99.90
9177;DHT22;4623;54.310;10.112;2022-08-19T09:07:52;21.60;99.90
9177;DHT22;4623;54.310;10.112;2022-08-19T09:15:43;21.80;99.90
9177;DHT22;4623;54.310;10.112;2022-08-19T09:18:10;21.80;99.90
9177;DHT22;4623;54.310;10.112;2022-08-19T09:20:36;21.70;99.90
9177;DHT22;4623;54.310;10.112;2022-08-19T09:23:02;21.60;99.90
9177;DHT22;4623;54.310;10.112;2022-08-19T09:25:28;21.50;99.90
9177;DHT22;4623;54.310;10.112;2022-08-19T09:27:55;21.60;99.90
9177;DHT22;4623;54.310;10.112;2022-08-19T09:30:27;21.50;99.90
9177;DHT22;4623;54.310;10.112;2022-08-19T09:32:54;21.50;99.90
9177;DHT22;4623;54.310;10.112;2022-08-19T09:35:22;21.50;99.90
9177;DHT22;4623;54.310;10.112;2022-08-19T09:37:49;21.40;99.90
9177;DHT22;4623;54.310;10.112;2022-08-19T09:40:16;21.30;99.90
9177;DHT22;4623;54.310;10.112;2022-08-19T09:42:43;21.40;99.90
9177;DHT22;4623;54.310;10.112;2022-08-19T09:45:10;21.40;99.90
9177;DHT22;4623;54.310;10.112;2022-08-19T09:47:36;21.30;99.90
9177;DHT22;4623;54.310;10.112;2022-08-19T09:50:08;21.30;99.90
9177;DHT22;4623;54.310;10.112;2022-08-19T09:52:34;21.40;99.90
9177;DHT22;4623;54.310;10.112;2022-08-19T09:55:03;21.40;99.90
9177;DHT22;4623;54.310;10.112;2022-08-19T09:57:28;21.40;99.90
9177;DHT22;4623;54.310;10.112;2022-08-19T09:59:54;21.50;99.90
9177;DHT22;4623;54.310;10.112;2022-08-19T10:02:20;21.40;99.90
9177;DHT22;4623;54.310;10.112;2022-08-19T10:04:45;21.40;99.90
9177;DHT22;4623;54.310;10.112;2022-08-19T10:07:30;21.50;99.90
9177;DHT22;4623;54.310;10.112;2022-08-19T10:09:56;21.40;99.90
9177;DHT22;4623;54.310;10.112;2022-08-19T10:12:22;21.40;99.90
9177;DHT22;4623;54.310;10.112;2022-08-19T10:14:48;21.40;99.90
9177;DHT22;4623;54.310;10.112;2022-08-19T10:17:14;21.40;99.90
9177;DHT22;4623;54.310;10.112;2022-08-19T10:19:40;21.40;99.90
9177;DHT22;4623;54.310;10.112;2022-08-19T10:22:06;21.50;99.90
9177;DHT22;4623;54.310;10.112;2022-08-19T10:24:33;21.50;99.90
9177;DHT22;4623;54.310;10.112;2022-08-19T10:27:00;21.50;99.90
9177;DHT22;4623;54.310;10.112;2022-08-19T10:29:29;21.60;99.90
9177;DHT22;4623;54.310;10.112;2022-08-19T10:31:55;21.70;99.90
9177;DHT22;4623;54.310;10.112;2022-08-19T10:34:23;21.80;99.90
9177;DHT22;4623;54.310;10.112;2022-08-19T10:36:48;21.80;99.90
9177;DHT22;4623;54.310;10.112;2022-08-19T10:39:15;21.90;99.90
9177;DHT22;4623;54.310;10.112;2022-08-19T10:41:40;21.90;99.90
9177;DHT22;4623;54.310;10.112;2022-08-19T10:44:11;21.90;99.90
9177;DHT22;4623;54.310;10.112;2022-08-19T10:46:43;22.00;99.90
9177;DHT22;4623;54.310;10.112;2022-08-19T10:49:12;22.10;99.90
9177;DHT22;4623;54.310;10.112;2022-08-19T10:51:39;22.10;99.90
9177;DHT22;4623;54.310;10.112;2022-08-19T10:54:23;22.10;99.90
9177;DHT22;4623;54.310;10.112;2022-08-19T10:57:09;22.20;99.90
9177;DHT22;4623;54.310;10.112;2022-08-19T10:59:34;22.20;99.90
9177;DHT22;4623;54.310;10.112;2022-08-19T11:02:04;22.20;99.90
9177;DHT22;4623;54.310;10.112;2022-08-19T11:04:30;22.20;99.90
9177;DHT22;4623;54.310;10.112;2022-08-19T11:06:57;22.30;99.90
9177;DHT22;4623;54.310;10.112;2022-08-19T11:09:24;22.20;99.90
9177;DHT22;4623;54.310;10.112;2022-08-19T11:11:51;22.30;99.90
9177;DHT22;4623;54.310;10.112;2022-08-19T11:14:19;22.40;99.90
9177;DHT22;4623;54.310;10.112;2022-08-19T11:16:46;22.40;99.90
9177;DHT22;4623;54.310;10.112;2022-08-19T11:19:12;22.50;99.90
9177;DHT22;4623;54.310;10.112;2022-08-19T11:21:41;22.70;99.90
9177;DHT22;4623;54.310;10.112;2022-08-19T11:24:14;22.70;99.90
9177;DHT22;4623;54.310;10.112;2022-08-19T11:26:42;22.70;99.90
9177;DHT22;4623;54.310;10.112;2022-08-19T11:29:10;22.80;99.90
9177;DHT22;4623;54.310;10.112;2022-08-19T11:31:40;22.80;99.90
9177;DHT22;4623;54.310;10.112;2022-08-19T11:34:10;22.90;99.90
9177;DHT22;4623;54.310;10.112;2022-08-19T11:36:38;23.00;99.90
9177;DHT22;4623;54.310;10.112;2022-08-19T11:39:07;23.10;99.90
9177;DHT22;4623;54.310;10.112;2022-08-19T11:41:33;23.10;99.90
9177;DHT22;4623;54.310;10.112;2022-08-19T11:43:59;23.20;99.90
9177;DHT22;4623;54.310;10.112;2022-08-19T11:46:26;23.30;99.90
9177;DHT22;4623;54.310;10.112;2022-08-19T11:48:55;23.20;99.90
9177;DHT22;4623;54.310;10.112;2022-08-19T11:51:23;23.10;99.90
9177;DHT22;4623;54.310;10.112;2022-08-19T11:53:50;23.00;99.90
9177;DHT22;4623;54.310;10.112;2022-08-19T11:56:17;23.00;99.90
9177;DHT22;4623;54.310;10.112;2022-08-19T11:58:44;23.10;99.90
9177;DHT22;4623;54.310;10.112;2022-08-19T12:01:11;22.90;99.90
9177;DHT22;4623;54.310;10.112;2022-08-19T12:03:38;22.80;99.90
9177;DHT22;4623;54.310;10.112;2022-08-19T12:06:05;22.80;99.90
9177;DHT22;4623;54.310;10.112;2022-08-19T12:08:31;22.80;99.90
9177;DHT22;4623;54.310;10.112;2022-08-19T12:10:57;22.80;99.90
9177;DHT22;4623;54.310;10.112;2022-08-19T12:13:23;22.80;99.90
9177;DHT22;4623;54.310;10.112;2022-08-19T12:15:49;22.80;99.90
9177;DHT22;4623;54.310;10.112;2022-08-19T12:18:15;22.80;99.90
9177;DHT22;4623;54.310;10.112;2022-08-19T12:20:41;22.80;99.90
9177;DHT22;4623;54.310;10.112;2022-08-19T12:23:09;22.90;99.90
9177;DHT22;4623;54.310;10.112;2022-08-19T12:25:43;22.80;99.90
9177;DHT22;4623;54.310;10.112;2022-08-19T12:28:13;22.90;99.90
9177;DHT22;4623;54.310;10.112;2022-08-19T12:30:39;22.70;99.90
9177;DHT22;4623;54.310;10.112;2022-08-19T12:33:04;22.70;99.90
9177;DHT22;4623;54.310;10.112;2022-08-19T12:35:30;22.70;99.90
9177;DHT22;4623;54.310;10.112;2022-08-19T12:37:56;22.80;99.90
9177;DHT22;4623;54.310;10.112;2022-08-19T12:40:21;22.70;99.90
9177;DHT22;4623;54.310;10.112;2022-08-19T12:42:47;22.80;99.90
9177;DHT22;4623;54.310;10.112;2022-08-19T12:45:15;22.80;99.90
9177;DHT22;4623;54.310;10.112;2022-08-19T12:47:41;22.90;99.90
9177;DHT22;4623;54.310;10.112;2022-08-19T12:50:07;23.00;99.90
9177;DHT22;4623;54.310;10.112;2022-08-19T12:52:35;23.10;99.90
9177;DHT22;4623;54.310;10.112;2022-08-19T12:55:06;23.10;99.90
9177;DHT22;4623;54.310;10.112;2022-08-19T12:57:32;23.10;99.90
9177;DHT22;4623;54.310;10.112;2022-08-19T13:00:11;23.20;99.90
9177;DHT22;4623;54.310;10.112;2022-08-19T13:02:42;23.20;99.90
9177;DHT22;4623;54.310;10.112;2022-08-19T13:05:14;23.30;99.90
9177;DHT22;4623;54.310;10.112;2022-08-19T13:07:41;23.30;99.90
9177;DHT22;4623;54.310;10.112;2022-08-19T13:10:10;23.30;99.90
9177;DHT22;4623;54.310;10.112;2022-08-19T13:12:37;23.30;99.90
9177;DHT22;4623;54.310;10.112;2022-08-19T13:15:03;23.30;99.90
9177;DHT22;4623;54.310;10.112;2022-08-19T13:17:29;23.20;99.90
9177;DHT22;4623;54.310;10.112;2022-08-19T13:19:54;23.20;99.90
9177;DHT22;4623;54.310;10.112;2022-08-19T13:22:20;23.30;99.90
9177;DHT22;4623;54.310;10.112;2022-08-19T13:24:46;23.40;99.90
9177;DHT22;4623;54.310;10.112;2022-08-19T13:27:11;23.50;99.90
9177;DHT22;4623;54.310;10.112;2022-08-19T13:29:39;23.50;99.90
9177;DHT22;4623;54.310;10.112;2022-08-19T13:32:23;23.70;99.90
9177;DHT22;4623;54.310;10.112;2022-08-19T13:35:07;23.60;99.90
9177;DHT22;4623;54.310;10.112;2022-08-19T13:37:33;23.60;99.90
9177;DHT22;4623;54.310;10.112;2022-08-19T13:40:18;23.60;99.90
9177;DHT22;4623;54.310;10.112;2022-08-19T13:42:46;23.70;99.90
9177;DHT22;4623;54.310;10.112;2022-08-19T13:45:13;23.70;99.90
9177;DHT22;4623;54.310;10.112;2022-08-19T13:47:40;23.90;99.90
9177;DHT22;4623;54.310;10.112;2022-08-19T13:50:15;23.70;99.90
9177;DHT22;4623;54.310;10.112;2022-08-19T13:52:42;23.70;99.90
9177;DHT22;4623;54.310;10.112;2022-08-19T13:55:10;23.60;99.90
9177;DHT22;4623;54.310;10.112;2022-08-19T13:57:36;23.70;99.90
9177;DHT22;4623;54.310;10.112;2022-08-19T14:00:07;23.70;99.90
9177;DHT22;4623;54.310;10.112;2022-08-19T14:02:35;23.60;99.90
9177;DHT22;4623;54.310;10.112;2022-08-19T14:05:03;23.50;99.90
9177;DHT22;4623;54.310;10.112;2022-08-19T14:07:29;23.50;99.90
9177;DHT22;4623;54.310;10.112;2022-08-19T14:09:55;23.40;99.90
9177;DHT22;4623;54.310;10.112;2022-08-19T14:12:21;23.40;99.90
9177;DHT22;4623;54.310;10.112;2022-08-19T14:14:46;23.40;99.90
9177;DHT22;4623;54.310;10.112;2022-08-19T14:17:12;23.40;99.90
9177;DHT22;4623;54.310;10.112;2022-08-19T14:19:38;23.50;99.90
9177;DHT22;4623;54.310;10.112;2022-08-19T14:22:03;23.40;99.90
9177;DHT22;4623;54.310;10.112;2022-08-19T14:24:30;23.40;99.90
9177;DHT22;4623;54.310;10.112;2022-08-19T14:26:57;23.40;99.90
9177;DHT22;4623;54.310;10.112;2022-08-19T14:29:24;23.40;99.90
9177;DHT22;4623;54.310;10.112;2022-08-19T14:31:50;23.30;99.90
9177;DHT22;4623;54.310;10.112;2022-08-19T14:34:15;23.20;99.90
9177;DHT22;4623;54.310;10.112;2022-08-19T14:36:41;23.30;99.90
9177;DHT22;4623;54.310;10.112;2022-08-19T14:39:07;23.40;99.90
9177;DHT22;4623;54.310;10.112;2022-08-19T14:41:32;23.50;99.90
9177;DHT22;4623;54.310;10.112;2022-08-19T14:43:58;23.60;99.90
9177;DHT22;4623;54.310;10.112;2022-08-19T14:46:27;23.60;99.90
9177;DHT22;4623;54.310;10.112;2022-08-19T14:48:53;23.50;99.90
9177;DHT22;4623;54.310;10.112;2022-08-19T14:51:20;23.50;99.90
9177;DHT22;4623;54.310;10.112;2022-08-19T14:53:46;23.50;99.90
9177;DHT22;4623;54.310;10.112;2022-08-19T14:56:18;23.60;99.90
9177;DHT22;4623;54.310;10.112;2022-08-19T14:58:45;23.60;99.90
9177;DHT22;4623;54.310;10.112;2022-08-19T15:01:11;23.60;99.90
9177;DHT22;4623;54.310;10.112;2022-08-19T15:03:37;23.70;99.90
9177;DHT22;4623;54.310;10.112;2022-08-19T15:06:05;23.70;99.90
9177;DHT22;4623;54.310;10.112;2022-08-19T15:08:32;23.70;99.90
9177;DHT22;4623;54.310;10.112;2022-08-19T15:11:00;23.80;99.90
9177;DHT22;4623;54.310;10.112;2022-08-19T15:13:28;23.80;99.90
9177;DHT22;4623;54.310;10.112;2022-08-19T15:15:55;23.80;99.90
9177;DHT22;4623;54.310;10.112;2022-08-19T15:18:21;23.90;99.90
9177;DHT22;4623;54.310;10.112;2022-08-19T15:20:48;23.90;99.90
9177;DHT22;4623;54.310;10.112;2022-08-19T15:23:15;23.80;99.90
9177;DHT22;4623;54.310;10.112;2022-08-19T15:25:41;23.80;99.90
9177;DHT22;4623;54.310;10.112;2022-08-19T15:28:07;23.80;99.90
9177;DHT22;4623;54.310;10.112;2022-08-19T15:30:37;23.70;99.90
9177;DHT22;4623;54.310;10.112;2022-08-19T15:33:03;23.70;99.90
9177;DHT22;4623;54.310;10.112;2022-08-19T15:35:30;23.70;99.90
9177;DHT22;4623;54.310;10.112;2022-08-19T15:37:56;23.70;99.90
9177;DHT22;4623;54.310;10.112;2022-08-19T15:40:24;23.60;99.90
9177;DHT22;4623;54.310;10.112;2022-08-19T15:42:50;23.60;99.90
9177;DHT22;4623;54.310;10.112;2022-08-19T15:45:17;23.50;99.90
9177;DHT22;4623;54.310;10.112;2022-08-19T15:47:43;23.50;99.90
9177;DHT22;4623;54.310;10.112;2022-08-19T15:50:13;23.60;99.90
9177;DHT22;4623;54.310;10.112;2022-08-19T15:52:51;23.60;99.90
9177;DHT22;4623;54.310;10.112;2022-08-19T15:55:20;23.60;99.90
9177;DHT22;4623;54.310;10.112;2022-08-19T15:57:46;23.70;99.90
9177;DHT22;4623;54.310;10.112;2022-08-19T16:00:31;23.70;99.90
9177;DHT22;4623;54.310;10.112;2022-08-19T16:03:15;23.60;99.90